createdAt,value
2022-09-01T00:00:06.687Z,29.30
2022-09-01T00:02:45.738Z,29.20
2022-09-01T00:05:22.610Z,29.50
2022-09-01T00:08:04.272Z,30.10
2022-09-01T00:10:36.885Z,30.40
2022-09-01T00:13:09.242Z,30.70
2022-09-01T00:15:42.214Z,30.70
2022-09-01T00:18:14.941Z,31.00
2022-09-01T00:20:53.317Z,30.40
2022-09-01T00:23:24.659Z,30.20
2022-09-01T00:25:55.984Z,30.40
2022-09-01T00:28:30.366Z,30.70
2022-09-01T00:31:04.703Z,31.00
2022-09-01T00:33:39.641Z,31.10
2022-09-01T00:36:13.173Z,31.10
2022-09-01T00:38:44.834Z,30.90
2022-09-01T00:41:16.740Z,31.00
2022-09-01T00:43:52.616Z,30.90
2022-09-01T00:46:35.412Z,31.00
2022-09-01T00:49:14.530Z,30.80
2022-09-01T01:02:37.757Z,29.90
2022-09-01T01:05:11.078Z,30.10
2022-09-01T01:07:48.435Z,30.20
2022-09-01T01:10:23.852Z,30.10
2022-09-01T01:16:11.427Z,29.80
2022-09-01T01:18:48.573Z,29.50
2022-09-01T01:21:45.505Z,29.00
2022-09-01T01:24:30.794Z,29.20
2022-09-01T01:27:04.329Z,29.50
2022-09-01T01:29:40.936Z,29.50
2022-09-01T01:32:28.652Z,29.40
2022-09-01T01:38:17.451Z,28.70
2022-09-01T01:41:18.378Z,28.60
2022-09-01T01:43:54.184Z,28.50
2022-09-01T01:49:25.733Z,28.20
2022-09-01T01:52:00.684Z,28.10
2022-09-01T01:54:37.553Z,28.00
2022-09-01T01:57:09.871Z,27.90
2022-09-01T01:59:50.883Z,27.70
2022-09-01T02:02:29.922Z,27.50
2022-09-01T02:07:37.041Z,27.30
2022-09-01T02:10:08.825Z,27.30
2022-09-01T02:12:49.093Z,27.20
2022-09-01T02:32:49.072Z,26.40
2022-09-01T02:41:40.849Z,25.80
2022-09-01T02:47:11.749Z,25.50
2022-09-01T02:50:18.109Z,25.10
2022-09-01T02:53:09.083Z,24.90
2022-09-01T02:55:40.863Z,24.80
2022-09-01T02:58:18.082Z,24.70
2022-09-01T03:01:00.181Z,24.60
2022-09-01T03:03:36.298Z,24.40
2022-09-01T03:06:13.490Z,24.40
2022-09-01T03:08:55.737Z,24.30
2022-09-01T03:11:37.052Z,24.10
2022-09-01T03:17:22.062Z,23.90
2022-09-01T03:20:06.607Z,23.70
2022-09-01T03:22:39.922Z,23.70
2022-09-01T03:25:27.032Z,23.60
2022-09-01T03:28:03.375Z,23.40
2022-09-01T03:30:36.097Z,23.30
2022-09-01T03:33:07.975Z,23.20
2022-09-01T03:35:39.698Z,23.10
2022-09-01T03:38:11.230Z,23.10
2022-09-01T03:40:46.702Z,23.00
2022-09-01T03:43:19.528Z,22.90
2022-09-01T03:45:50.907Z,22.90
2022-09-01T03:48:21.992Z,22.90
2022-09-01T03:50:53.258Z,22.80
2022-09-01T03:53:28.350Z,22.60
2022-09-01T03:56:03.139Z,22.60
2022-09-01T03:58:34.420Z,22.50
2022-09-01T04:01:05.905Z,22.50
2022-09-01T04:03:44.178Z,22.40
2022-09-01T04:06:15.797Z,22.20
2022-09-01T04:08:47.911Z,21.80
2022-09-01T04:11:25.156Z,21.70
2022-09-01T04:13:56.569Z,21.60
2022-09-01T04:16:46.134Z,21.50
2022-09-01T04:19:21.196Z,21.50
2022-09-01T04:21:54.027Z,21.40
2022-09-01T04:24:29.744Z,21.30
2022-09-01T04:27:04.883Z,21.30
2022-09-01T04:29:37.444Z,21.30
2022-09-01T04:32:12.243Z,21.20
2022-09-01T04:34:43.283Z,21.20
2022-09-01T04:37:18.634Z,20.90
2022-09-01T04:39:56.639Z,20.80
2022-09-01T04:42:33.595Z,20.80
2022-09-01T04:45:11.970Z,20.70
2022-09-01T04:47:44.083Z,20.60
2022-09-01T04:50:18.820Z,20.50
2022-09-01T04:55:50.318Z,20.40
2022-09-01T04:58:23.661Z,20.30
2022-09-01T05:00:56.925Z,20.20
2022-09-01T05:03:28.295Z,20.10
2022-09-01T05:06:02.199Z,20.00
2022-09-01T05:08:36.450Z,19.80
2022-09-01T05:11:09.115Z,19.80
2022-09-01T05:13:42.249Z,19.70
2022-09-01T05:16:17.286Z,19.70
2022-09-01T05:18:51.905Z,19.70
2022-09-01T05:21:27.577Z,19.70
2022-09-01T05:23:58.897Z,19.60
2022-09-01T05:26:32.657Z,19.60
2022-09-01T05:29:14.611Z,19.50
2022-09-01T05:31:50.453Z,19.60
2022-09-01T05:34:27.389Z,19.60
2022-09-01T05:37:00.838Z,19.60
2022-09-01T05:39:33.342Z,19.60
2022-09-01T05:42:06.982Z,19.60
2022-09-01T05:44:41.171Z,19.60
2022-09-01T05:47:14.866Z,19.50
2022-09-01T05:49:54.625Z,19.40
2022-09-01T05:52:27.291Z,19.50
2022-09-01T05:55:01.103Z,19.40
2022-09-01T05:57:36.448Z,19.40
2022-09-01T06:00:14.980Z,19.30
2022-09-01T06:02:47.094Z,19.30
2022-09-01T06:05:18.455Z,19.30
2022-09-01T06:07:50.139Z,19.20
2022-09-01T06:10:21.892Z,19.20
2022-09-01T06:12:54.559Z,19.20
2022-09-01T06:15:30.548Z,19.30
2022-09-01T06:18:02.624Z,19.20
2022-09-01T06:20:34.135Z,19.10
2022-09-01T06:23:05.132Z,19.20
2022-09-01T06:25:39.234Z,19.10
2022-09-01T06:28:13.843Z,19.10
2022-09-01T06:30:49.036Z,19.00
2022-09-01T06:33:24.093Z,19.00
2022-09-01T06:35:56.894Z,18.90
2022-09-01T06:38:28.377Z,18.90
2022-09-01T06:41:06.739Z,18.90
2022-09-01T06:43:38.112Z,18.90
2022-09-01T06:46:13.101Z,18.90
2022-09-01T06:48:47.200Z,18.80
2022-09-01T06:51:21.369Z,18.80
2022-09-01T06:53:57.875Z,18.70
2022-09-01T06:56:31.944Z,18.70
2022-09-01T06:59:07.501Z,18.70
2022-09-01T07:01:40.982Z,18.60
2022-09-01T07:04:13.435Z,18.60
2022-09-01T07:07:01.849Z,18.50
2022-09-01T07:09:47.619Z,18.50
2022-09-01T07:12:25.723Z,18.50
2022-09-01T07:17:54.069Z,18.30
2022-09-01T07:20:28.608Z,18.30
2022-09-01T07:23:05.798Z,18.30
2022-09-01T07:38:47.442Z,18.00
2022-09-01T07:42:56.765Z,18.20
2022-09-01T07:45:36.295Z,17.90
2022-09-01T07:48:10.591Z,17.90
2022-09-01T07:53:40.313Z,17.80
2022-09-01T07:56:14.338Z,17.70
2022-09-01T07:58:45.708Z,17.70
2022-09-01T08:01:20.353Z,17.80
2022-09-01T08:03:53.214Z,17.70
2022-09-01T08:06:27.921Z,17.70
2022-09-01T08:09:01.183Z,17.70
2022-09-01T08:12:03.914Z,17.70
2022-09-01T08:14:25.442Z,17.60
2022-09-01T08:16:56.965Z,17.60
2022-09-01T08:19:28.444Z,17.60
2022-09-01T08:22:03.974Z,17.60
2022-09-01T08:24:35.186Z,17.50
2022-09-01T08:27:06.428Z,17.50
2022-09-01T08:29:37.570Z,17.60
2022-09-01T08:32:09.096Z,17.60
2022-09-01T08:34:40.335Z,17.50
2022-09-01T08:37:13.517Z,17.40
2022-09-01T08:39:45.265Z,17.40
2022-09-01T08:42:24.062Z,17.30
2022-09-01T08:45:02.156Z,17.30
2022-09-01T08:47:49.166Z,17.20
2022-09-01T08:50:26.591Z,17.30
2022-09-01T08:53:13.805Z,17.30
2022-09-01T08:55:49.476Z,17.20
2022-09-01T08:58:22.416Z,17.20
2022-09-01T09:00:58.834Z,17.20
2022-09-01T09:03:40.955Z,17.20
2022-09-01T09:06:20.173Z,17.20
2022-09-01T09:09:05.142Z,17.20
2022-09-01T09:12:04.366Z,17.10
2022-09-01T09:14:55.891Z,17.10
2022-09-01T09:17:33.791Z,17.00
2022-09-01T09:20:08.885Z,17.10
2022-09-01T09:22:40.862Z,17.00
2022-09-01T09:25:19.195Z,17.00
2022-09-01T09:28:00.445Z,17.00
2022-09-01T09:30:33.587Z,16.90
2022-09-01T09:35:58.910Z,16.80
2022-09-01T09:38:33.437Z,16.80
2022-09-01T09:41:17.212Z,16.70
2022-09-01T09:43:52.821Z,16.70
2022-09-01T09:46:37.580Z,16.80
2022-09-01T09:49:21.550Z,16.80
2022-09-01T09:52:19.176Z,16.80
2022-09-01T09:55:07.273Z,16.70
2022-09-01T09:57:43.409Z,16.70
2022-09-01T10:00:25.640Z,16.70
2022-09-01T10:03:00.411Z,16.70
2022-09-01T10:05:39.593Z,16.60
2022-09-01T10:08:13.392Z,16.60
2022-09-01T10:10:48.777Z,16.60
2022-09-01T10:13:33.115Z,16.60
2022-09-01T10:16:07.935Z,16.60
2022-09-01T10:18:43.781Z,16.60
2022-09-01T10:21:19.284Z,16.50
2022-09-01T10:23:50.895Z,16.50
2022-09-01T10:26:26.555Z,16.50
2022-09-01T10:29:07.682Z,16.60
2022-09-01T10:31:44.994Z,16.60
2022-09-01T10:34:19.924Z,16.60
2022-09-01T10:36:55.769Z,16.60
2022-09-01T10:39:31.121Z,16.60
2022-09-01T10:42:09.147Z,16.70
2022-09-01T10:44:58.442Z,16.70
2022-09-01T10:47:32.322Z,16.60
2022-09-01T10:50:23.696Z,16.70
2022-09-01T10:53:33.966Z,16.70
2022-09-01T10:56:23.396Z,16.60
2022-09-01T10:59:31.256Z,16.70
2022-09-01T11:02:24.870Z,16.70
2022-09-01T11:05:22.396Z,16.70
2022-09-01T11:08:01.798Z,16.70
2022-09-01T11:10:57.046Z,16.70
2022-09-01T11:13:49.802Z,16.70
2022-09-01T11:16:47.038Z,16.80
2022-09-01T11:19:44.579Z,16.80
2022-09-01T11:22:29.793Z,16.90
2022-09-01T11:25:39.533Z,16.90
2022-09-01T11:28:44.453Z,17.00
2022-09-01T11:31:28.397Z,17.00
2022-09-01T11:34:19.323Z,17.10
2022-09-01T11:37:16.094Z,17.10
2022-09-01T11:39:52.237Z,16.90
2022-09-01T11:42:29.708Z,16.90
2022-09-01T11:45:05.341Z,16.90
2022-09-01T11:47:42.467Z,16.80
2022-09-01T11:50:24.078Z,16.80
2022-09-01T11:53:05.218Z,16.70
2022-09-01T11:55:38.421Z,16.70
2022-09-01T11:58:17.639Z,16.70
2022-09-01T12:00:49.598Z,16.60
2022-09-01T12:03:25.713Z,16.60
2022-09-01T12:06:00.493Z,16.50
2022-09-01T12:08:38.446Z,16.40
2022-09-01T12:11:12.767Z,16.30
2022-09-01T12:13:57.336Z,16.30
2022-09-01T12:16:29.507Z,16.30
2022-09-01T12:19:02.091Z,16.30
2022-09-01T12:21:35.495Z,16.30
2022-09-01T12:24:30.426Z,16.40
2022-09-01T12:27:02.030Z,16.30
2022-09-01T12:29:34.720Z,16.40
2022-09-01T12:32:06.923Z,16.40
2022-09-01T12:34:44.299Z,16.40
2022-09-01T12:37:25.078Z,16.40
2022-09-01T12:39:59.670Z,16.50
2022-09-01T12:42:41.471Z,16.40
2022-09-01T12:45:16.428Z,16.50
2022-09-01T12:47:52.569Z,16.60
2022-09-01T12:50:56.142Z,16.60
2022-09-01T12:53:36.562Z,16.50
2022-09-01T12:56:22.745Z,16.40
2022-09-01T12:58:55.718Z,16.40
2022-09-01T13:01:33.933Z,16.40
2022-09-01T13:04:29.472Z,16.40
2022-09-01T13:07:05.536Z,16.50
2022-09-01T13:09:37.391Z,16.40
2022-09-01T13:12:21.709Z,16.40
2022-09-01T13:14:54.104Z,16.40
2022-09-01T13:17:25.077Z,16.40
2022-09-01T13:19:56.082Z,16.50
2022-09-01T13:22:27.906Z,16.40
2022-09-01T13:24:59.166Z,16.30
2022-09-01T13:27:32.977Z,16.40
2022-09-01T13:30:04.546Z,16.40
2022-09-01T13:32:35.959Z,16.40
2022-09-01T13:35:08.206Z,16.50
2022-09-01T13:37:39.529Z,16.50
2022-09-01T13:40:16.930Z,16.30
2022-09-01T13:42:52.592Z,16.40
2022-09-01T13:45:25.597Z,16.40
2022-09-01T13:53:41.485Z,16.50
2022-09-01T13:56:12.069Z,16.50
2022-09-01T13:58:46.332Z,16.50
2022-09-01T14:01:19.542Z,16.60
2022-09-01T14:03:52.178Z,16.60
2022-09-01T14:06:24.177Z,16.40
2022-09-01T14:08:55.374Z,16.40
2022-09-01T14:11:26.485Z,16.50
2022-09-01T14:13:59.679Z,16.40
2022-09-01T14:16:31.028Z,16.40
2022-09-01T14:19:03.126Z,16.40
2022-09-01T14:21:33.737Z,16.40
2022-09-01T14:26:36.649Z,16.60
2022-09-01T14:29:09.513Z,16.60
2022-09-01T14:31:42.278Z,16.70
2022-09-01T14:34:14.143Z,16.60
2022-09-01T14:36:46.107Z,16.60
2022-09-01T14:39:17.121Z,16.60
2022-09-01T14:42:02.623Z,16.40
2022-09-01T14:47:59.842Z,16.40
2022-09-01T14:50:35.874Z,16.30
2022-09-01T14:58:48.256Z,16.60
2022-09-01T15:01:34.174Z,16.60
2022-09-01T15:04:10.602Z,16.60
2022-09-01T15:06:43.897Z,16.60
2022-09-01T15:09:19.113Z,16.70
2022-09-01T15:11:59.312Z,16.80
2022-09-01T15:14:33.751Z,16.80
2022-09-01T15:17:25.367Z,16.60
2022-09-01T15:22:55.674Z,16.40
2022-09-01T15:25:27.691Z,16.30
2022-09-01T15:27:59.528Z,16.50
2022-09-01T15:30:30.764Z,16.60
2022-09-01T15:33:05.143Z,16.70
2022-09-01T15:35:38.829Z,16.70
2022-09-01T15:38:09.859Z,16.70
2022-09-01T15:40:44.315Z,16.50
2022-09-01T15:43:16.574Z,16.60
2022-09-01T15:45:52.802Z,16.60
2022-09-01T15:48:27.775Z,16.60
2022-09-01T15:51:13.904Z,16.60
2022-09-01T15:53:44.529Z,16.70
2022-09-01T15:56:15.392Z,16.80
2022-09-01T15:59:01.095Z,16.90
2022-09-01T16:01:35.041Z,16.90
2022-09-01T16:04:48.499Z,16.80
2022-09-01T16:07:34.029Z,16.80
2022-09-01T16:10:05.643Z,16.80
2022-09-01T16:12:37.692Z,16.70
2022-09-01T16:15:10.084Z,16.80
2022-09-01T16:17:54.849Z,16.80
2022-09-01T16:20:28.067Z,17.00
2022-09-01T16:23:12.527Z,17.00
2022-09-01T16:25:43.791Z,16.90
2022-09-01T16:28:29.157Z,17.10
2022-09-01T16:31:07.056Z,17.30
2022-09-01T16:33:38.971Z,17.30
2022-09-01T16:36:23.327Z,17.20
2022-09-01T16:39:02.228Z,17.30
2022-09-01T16:41:45.426Z,17.40
2022-09-01T16:44:38.654Z,17.50
2022-09-01T16:47:28.149Z,17.70
2022-09-01T16:50:06.712Z,17.80
2022-09-01T16:52:47.069Z,17.80
2022-09-01T16:55:28.220Z,17.70
2022-09-01T16:58:07.062Z,17.70
2022-09-01T17:00:49.352Z,17.70
2022-09-01T17:03:42.634Z,17.80
2022-09-01T17:06:20.691Z,18.00
2022-09-01T17:08:56.403Z,18.00
2022-09-01T17:11:38.260Z,18.10
2022-09-01T17:14:13.850Z,18.20
2022-09-01T17:16:47.381Z,18.30
2022-09-01T17:19:21.358Z,18.40
2022-09-01T17:21:57.693Z,18.40
2022-09-01T17:24:39.582Z,18.30
2022-09-01T17:27:22.649Z,18.00
2022-09-01T17:29:56.776Z,18.10
2022-09-01T17:32:57.291Z,18.30
2022-09-01T17:35:34.874Z,18.20
2022-09-01T17:38:19.664Z,18.30
2022-09-01T17:41:06.757Z,18.50
2022-09-01T17:43:51.177Z,18.60
2022-09-01T17:46:32.743Z,18.70
2022-09-01T17:49:12.965Z,18.70
2022-09-01T17:51:49.330Z,18.70
2022-09-01T17:54:28.852Z,18.70
2022-09-01T17:57:13.306Z,18.90
2022-09-01T17:59:50.117Z,18.80
2022-09-01T18:02:47.807Z,19.00
2022-09-01T18:05:24.697Z,18.90
2022-09-01T18:08:30.446Z,18.90
2022-09-01T18:11:09.149Z,19.20
2022-09-01T18:13:53.821Z,19.00
2022-09-01T18:16:29.984Z,19.40
2022-09-01T18:19:06.893Z,19.40
2022-09-01T18:21:40.903Z,19.40
2022-09-01T18:24:19.540Z,19.70
2022-09-01T18:26:53.151Z,19.70
2022-09-01T18:29:29.224Z,19.70
2022-09-01T18:32:24.470Z,19.90
2022-09-01T18:35:12.637Z,20.20
2022-09-01T18:37:59.577Z,20.20
2022-09-01T18:40:35.089Z,20.40
2022-09-01T18:43:18.040Z,20.50
2022-09-01T18:45:56.321Z,20.30
2022-09-01T18:48:45.012Z,20.60
2022-09-01T18:51:23.773Z,20.30
2022-09-01T18:54:00.017Z,20.50
2022-09-01T18:56:38.957Z,20.90
2022-09-01T18:59:26.310Z,20.70
2022-09-01T19:02:19.483Z,20.90
2022-09-01T19:04:57.211Z,20.60
2022-09-01T19:07:37.826Z,20.70
2022-09-01T19:10:18.668Z,20.90
2022-09-01T19:12:57.045Z,20.70
2022-09-01T19:15:36.636Z,21.00
2022-09-01T19:18:21.634Z,21.10
2022-09-01T19:20:59.255Z,20.60
2022-09-01T19:23:42.456Z,20.70
2022-09-01T19:26:22.200Z,20.70
2022-09-01T19:28:56.096Z,20.40
2022-09-01T19:31:30.531Z,20.10
2022-09-01T19:34:04.085Z,20.20
2022-09-01T19:36:43.060Z,20.30
2022-09-01T19:39:16.981Z,20.30
2022-09-01T19:41:54.907Z,20.30
2022-09-01T19:44:35.954Z,20.00
2022-09-01T19:47:12.954Z,20.10
2022-09-01T19:49:51.985Z,20.20
2022-09-01T19:52:34.749Z,20.30
2022-09-01T19:55:15.704Z,20.60
2022-09-01T19:57:54.506Z,20.80
2022-09-01T20:00:33.401Z,20.80
2022-09-01T20:03:14.050Z,20.60
2022-09-01T20:05:50.206Z,20.50
2022-09-01T20:08:44.766Z,20.50
2022-09-01T20:14:37.366Z,20.40
2022-09-01T20:17:10.504Z,20.40
2022-09-01T20:19:48.245Z,20.50
2022-09-01T20:22:33.151Z,20.80
2022-09-01T20:25:17.293Z,21.10
2022-09-01T20:27:56.509Z,21.10
2022-09-01T20:30:32.190Z,21.30
2022-09-01T20:33:09.439Z,21.50
2022-09-01T20:35:45.302Z,21.70
2022-09-01T20:38:38.591Z,21.40
2022-09-01T20:41:21.889Z,21.40
2022-09-01T20:43:56.737Z,21.60
2022-09-01T20:46:29.021Z,21.60
2022-09-01T20:49:00.276Z,21.70
2022-09-01T20:51:43.267Z,21.80
2022-09-01T20:54:27.977Z,21.90
2022-09-01T20:57:10.414Z,22.00
2022-09-01T20:59:48.227Z,21.90
2022-09-01T21:02:43.303Z,22.00
2022-09-01T21:05:24.771Z,22.40
2022-09-01T21:08:03.855Z,22.40
2022-09-01T21:10:41.544Z,22.70
2022-09-01T21:13:25.111Z,22.90
2022-09-01T21:16:01.351Z,23.00
2022-09-01T21:18:48.726Z,22.80
2022-09-01T21:21:37.706Z,22.60
2022-09-01T21:24:09.579Z,23.00
2022-09-01T21:26:52.084Z,23.20
2022-09-01T21:29:33.111Z,23.00
2022-09-01T21:32:04.366Z,23.40
2022-09-01T21:34:35.862Z,23.80
2022-09-01T21:37:07.330Z,24.20
2022-09-01T21:39:38.298Z,24.40
2022-09-01T21:42:11.479Z,24.30
2022-09-01T21:44:45.461Z,24.60
2022-09-01T21:47:17.297Z,24.70
2022-09-01T21:52:50.632Z,24.60
2022-09-01T21:58:19.487Z,25.20
2022-09-01T22:00:53.112Z,25.20
2022-09-01T22:03:24.425Z,25.50
2022-09-01T22:05:55.298Z,25.30
2022-09-01T22:08:26.469Z,25.00
2022-09-01T22:10:59.396Z,25.30
2022-09-01T22:13:29.977Z,25.50
2022-09-01T22:16:03.771Z,25.80
2022-09-01T22:18:35.193Z,25.80
2022-09-01T22:21:07.082Z,25.50
2022-09-01T22:23:38.733Z,25.80
2022-09-01T22:26:14.983Z,26.10
2022-09-01T22:28:47.092Z,26.20
2022-09-01T22:31:22.463Z,26.60
2022-09-01T22:33:55.083Z,26.80
2022-09-01T22:36:27.339Z,26.70
2022-09-01T22:38:59.268Z,26.70
2022-09-01T22:41:32.197Z,27.10
2022-09-01T22:44:04.660Z,26.80
2022-09-01T22:46:38.963Z,26.80
2022-09-01T22:49:10.361Z,27.00
2022-09-01T22:51:42.135Z,27.10
2022-09-01T22:54:14.672Z,26.90
2022-09-01T22:56:46.258Z,26.80
2022-09-01T22:59:19.055Z,27.20
2022-09-01T23:01:52.697Z,27.50
2022-09-01T23:04:24.550Z,27.50
2022-09-01T23:06:56.608Z,27.60
2022-09-01T23:09:28.601Z,27.40
2022-09-01T23:12:00.366Z,27.50
2022-09-01T23:14:31.704Z,27.80
2022-09-01T23:17:06.075Z,28.10
2022-09-01T23:19:36.996Z,28.10
2022-09-01T23:22:11.883Z,28.00
2022-09-01T23:24:43.554Z,28.30
2022-09-01T23:27:14.642Z,28.00
2022-09-01T23:29:45.895Z,28.00
2022-09-01T23:32:19.566Z,27.60
2022-09-01T23:34:50.852Z,27.80
2022-09-01T23:37:22.244Z,28.00
2022-09-01T23:39:54.172Z,28.20
2022-09-01T23:42:25.693Z,28.30
2022-09-01T23:44:57.054Z,28.40
2022-09-01T23:47:32.251Z,28.30
2022-09-01T23:50:03.847Z,28.00
2022-09-01T23:52:35.895Z,28.20
2022-09-01T23:55:07.983Z,28.30
2022-09-01T23:57:40.331Z,28.20
